Time;durP1;ratioP1;P1;durP2;ratioP2;P2;SDS_P1;SDS_P2;PMS_P1;PMS_P2;Temp;Humidity;BMP_temperature;BMP_pressure;BME280_temperature;BME280_humidity;BME280_pressure;Samples;Min_cycle;Max_cycle;Signal;HPM_P1;HPM_P2
2022/07/26 00:00:47;;;;;;;7.18;5.68;;;;;;;;;;2059201;28;20030;-78
2022/07/26 00:02:06;;;;;;;6.45;5.20;;;;;;;;;;2061251;28;20543;-79
2022/07/26 00:03:24;;;;;;;7.95;5.43;;;;;;;;;;2069876;28;20128;-78
2022/07/26 00:04:43;;;;;;;6.10;5.50;;;;;;;;;;2072152;28;20030;-78
2022/07/26 00:06:02;;;;;;;8.05;6.30;;;;;;;;;;2063742;28;20039;-79
2022/07/26 00:07:21;;;;;;;6.60;5.90;;;;;;;;;;2069468;28;20399;-78
2022/07/26 00:08:40;;;;;;;6.78;5.75;;;;;;;;;;2073035;28;20022;-78
2022/07/26 00:09:59;;;;;;;7.03;5.15;;;;;;;;;;2073650;28;20488;-79
2022/07/26 00:11:18;;;;;;;6.30;5.07;;;;;;;;;;2064766;28;20507;-79
2022/07/26 00:12:37;;;;;;;7.70;5.68;;;;;;;;;;2069334;28;20442;-78
2022/07/26 00:13:56;;;;;;;7.13;5.40;;;;;;;;;;2063355;28;20101;-78
2022/07/26 00:15:15;;;;;;;6.25;5.50;;;;;;;;;;2068132;28;20392;-78
2022/07/26 00:16:34;;;;;;;5.85;5.35;;;;;;;;;;2064941;28;20512;-79
2022/07/26 00:17:53;;;;;;;5.75;5.00;;;;;;;;;;2068573;28;20038;-78
2022/07/26 00:19:12;;;;;;;8.88;5.47;;;;;;;;;;2072163;28;20062;-78
2022/07/26 00:20:31;;;;;;;6.25;5.75;;;;;;;;;;2072022;28;20575;-78
2022/07/26 00:22:32;;;;;;;8.68;5.97;;;;;;;;;;2061462;28;20026;-79
2022/07/26 00:23:29;;;;;;;5.78;5.28;;;;;;;;;;2072612;28;20030;-78
2022/07/26 00:24:48;;;;;;;8.18;5.60;;;;;;;;;;2071785;28;20037;-78
2022/07/26 00:26:07;;;;;;;8.65;5.97;;;;;;;;;;2071983;28;20042;-78
2022/07/26 00:27:26;;;;;;;8.68;5.63;;;;;;;;;;2071617;28;20030;-78
2022/07/26 00:28:45;;;;;;;7.97;5.38;;;;;;;;;;2064902;28;20038;-79
2022/07/26 00:30:05;;;;;;;7.90;5.82;;;;;;;;;;2067938;28;20018;-79
2022/07/26 00:31:25;;;;;;;5.72;5.20;;;;;;;;;;2071546;28;20022;-79
2022/07/26 00:32:44;;;;;;;5.65;5.15;;;;;;;;;;2072427;28;20077;-79
2022/07/26 00:34:02;;;;;;;6.28;5.70;;;;;;;;;;2072663;28;20034;-79
2022/07/26 00:35:22;;;;;;;6.47;5.80;;;;;;;;;;2071628;28;20483;-79
2022/07/26 00:36:42;;;;;;;7.22;5.88;;;;;;;;;;2072449;28;20029;-78
2022/07/26 00:38:01;;;;;;;6.65;5.47;;;;;;;;;;2080224;28;20053;-79
2022/07/26 00:39:20;;;;;;;11.10;6.00;;;;;;;;;;2072308;28;20034;-78
2022/07/26 00:40:39;;;;;;;6.30;5.50;;;;;;;;;;2068530;28;20515;-79
2022/07/26 00:41:57;;;;;;;9.63;5.65;;;;;;;;;;2069007;28;20077;-79
2022/07/26 00:43:16;;;;;;;5.80;5.28;;;;;;;;;;2067998;28;20030;-78
2022/07/26 00:44:36;;;;;;;7.07;5.55;;;;;;;;;;2076526;28;20124;-79
2022/07/26 00:45:56;;;;;;;7.25;5.60;;;;;;;;;;2071975;28;20044;-79
2022/07/26 00:47:15;;;;;;;6.50;5.25;;;;;;;;;;2069569;28;20061;-79
2022/07/26 00:48:34;;;;;;;9.00;5.30;;;;;;;;;;2075576;28;20937;-78
2022/07/26 00:49:53;;;;;;;6.32;5.38;;;;;;;;;;2073733;28;20506;-79
2022/07/26 00:51:13;;;;;;;5.57;5.10;;;;;;;;;;2069327;28;20026;-78
2022/07/26 00:52:32;;;;;;;5.53;5.05;;;;;;;;;;2078166;28;20025;-79
2022/07/26 00:53:51;;;;;;;9.73;5.70;;;;;;;;;;2072266;28;20428;-79
2022/07/26 00:55:10;;;;;;;5.97;5.13;;;;;;;;;;2070475;28;20414;-78
2022/07/26 00:56:30;;;;;;;7.28;5.25;;;;;;;;;;2068636;28;20044;-79
2022/07/26 00:57:49;;;;;;;5.22;4.70;;;;;;;;;;2076398;28;20033;-78
2022/07/26 00:59:08;;;;;;;5.45;4.78;;;;;;;;;;2081603;28;20041;-79
2022/07/26 01:00:27;;;;;;;5.38;4.90;;;;;;;;;;2072140;28;20128;-79
2022/07/26 01:01:46;;;;;;;5.00;4.60;;;;;;;;;;2073553;28;20034;-79
2022/07/26 01:03:05;;;;;;;5.72;5.22;;;;;;;;;;2078186;28;20470;-79
2022/07/26 01:04:24;;;;;;;5.68;5.15;;;;;;;;;;2080790;28;20033;-80
2022/07/26 01:05:43;;;;;;;5.55;5.00;;;;;;;;;;2076277;28;20069;-80
2022/07/26 01:07:02;;;;;;;5.47;5.07;;;;;;;;;;2079599;28;20029;-80
2022/07/26 01:08:21;;;;;;;5.22;4.82;;;;;;;;;;2072213;28;20517;-80
2022/07/26 01:09:39;;;;;;;5.40;4.90;;;;;;;;;;2068188;28;20029;-79
2022/07/26 01:10:58;;;;;;;8.07;4.78;;;;;;;;;;2076679;28;20454;-80
2022/07/26 01:12:17;;;;;;;5.90;5.40;;;;;;;;;;2072020;28;20038;-80
2022/07/26 01:13:36;;;;;;;5.35;5.00;;;;;;;;;;2077662;28;20029;-79
2022/07/26 01:14:55;;;;;;;5.90;5.47;;;;;;;;;;2071843;28;20034;-79
2022/07/26 01:16:14;;;;;;;7.13;5.32;;;;;;;;;;2068472;28;20550;-79
2022/07/26 01:17:33;;;;;;;5.95;5.40;;;;;;;;;;2069687;28;20050;-79
2022/07/26 01:18:52;;;;;;;5.43;5.03;;;;;;;;;;2075745;28;20117;-80
2022/07/26 01:20:12;;;;;;;5.57;5.07;;;;;;;;;;2070675;28;20029;-79
2022/07/26 01:21:31;;;;;;;6.40;5.10;;;;;;;;;;2076754;28;20430;-80
2022/07/26 01:22:50;;;;;;;5.43;5.03;;;;;;;;;;2079395;28;20030;-79
2022/07/26 01:24:09;;;;;;;5.65;5.15;;;;;;;;;;2071264;28;20037;-79
2022/07/26 01:25:33;;;;;;;6.07;5.50;;;;;;;;;;2067973;28;20034;-80
2022/07/26 01:26:54;;;;;;;5.68;5.18;;;;;;;;;;2074714;28;20054;-79
2022/07/26 01:28:13;;;;;;;5.82;5.32;;;;;;;;;;2071003;28;20029;-79
2022/07/26 01:29:32;;;;;;;5.78;4.90;;;;;;;;;;2067492;28;20022;-79
2022/07/26 01:30:50;;;;;;;8.27;5.10;;;;;;;;;;2075116;28;20113;-79
2022/07/26 01:32:09;;;;;;;5.35;4.88;;;;;;;;;;2071830;28;20034;-79
2022/07/26 01:33:28;;;;;;;5.53;5.13;;;;;;;;;;2077045;28;20108;-79
2022/07/26 01:34:47;;;;;;;6.55;4.93;;;;;;;;;;2080692;28;20025;-79
2022/07/26 01:36:07;;;;;;;7.10;5.35;;;;;;;;;;2078720;28;20522;-78
2022/07/26 01:37:26;;;;;;;5.50;5.10;;;;;;;;;;2065002;28;20046;-79
2022/07/26 01:38:45;;;;;;;5.43;5.00;;;;;;;;;;2059984;28;20039;-79
2022/07/26 01:40:04;;;;;;;6.35;5.03;;;;;;;;;;2056916;28;20424;-79
2022/07/26 01:41:23;;;;;;;6.18;5.57;;;;;;;;;;2056840;28;20456;-79
2022/07/26 01:42:42;;;;;;;6.18;5.32;;;;;;;;;;2068663;28;20038;-79
2022/07/26 01:44:01;;;;;;;5.63;5.13;;;;;;;;;;2071516;28;20050;-79
2022/07/26 01:45:20;;;;;;;5.72;5.15;;;;;;;;;;2071252;28;20022;-79
2022/07/26 01:46:39;;;;;;;5.93;4.75;;;;;;;;;;2071609;28;20034;-79
2022/07/26 01:47:58;;;;;;;5.32;4.80;;;;;;;;;;2072588;28;20018;-79
2022/07/26 01:49:16;;;;;;;4.97;4.60;;;;;;;;;;2072382;28;20029;-79
2022/07/26 01:50:36;;;;;;;6.75;5.53;;;;;;;;;;2061879;28;20023;-79
2022/07/26 01:51:55;;;;;;;5.65;5.10;;;;;;;;;;2068344;28;20034;-80
2022/07/26 01:53:14;;;;;;;5.93;5.53;;;;;;;;;;2072618;28;20026;-79
2022/07/26 01:54:33;;;;;;;5.85;5.40;;;;;;;;;;2071998;28;20034;-79
2022/07/26 01:55:52;;;;;;;5.93;5.43;;;;;;;;;;2072698;28;20476;-79
2022/07/26 01:57:11;;;;;;;5.95;5.55;;;;;;;;;;2072733;28;20065;-78
2022/07/26 01:58:30;;;;;;;7.93;5.68;;;;;;;;;;2072964;28;20101;-78
2022/07/26 01:59:49;;;;;;;5.50;4.90;;;;;;;;;;2073111;28;20033;-79
2022/07/26 02:01:08;;;;;;;7.35;5.75;;;;;;;;;;2071614;28;20148;-79
2022/07/26 02:02:28;;;;;;;6.55;5.93;;;;;;;;;;2071301;28;20029;-79
2022/07/26 02:03:47;;;;;;;7.60;5.30;;;;;;;;;;2063427;28;20027;-79
2022/07/26 02:05:06;;;;;;;6.25;5.40;;;;;;;;;;2068904;28;20042;-78
2022/07/26 02:06:25;;;;;;;5.63;5.07;;;;;;;;;;2072731;28;20049;-79
2022/07/26 02:07:44;;;;;;;5.50;4.95;;;;;;;;;;2064062;28;20031;-78
2022/07/26 02:09:03;;;;;;;6.18;5.68;;;;;;;;;;2068383;28;20105;-79
2022/07/26 02:10:22;;;;;;;8.27;5.60;;;;;;;;;;2062560;28;20507;-79
2022/07/26 02:11:41;;;;;;;7.07;5.88;;;;;;;;;;2068988;28;20106;-78
2022/07/26 02:13:00;;;;;;;7.03;6.47;;;;;;;;;;2072618;28;20392;-78
2022/07/26 02:14:19;;;;;;;8.02;6.43;;;;;;;;;;2062342;28;20039;-78
2022/07/26 02:15:38;;;;;;;7.00;6.20;;;;;;;;;;2067357;28;20112;-79
2022/07/26 02:16:58;;;;;;;6.03;5.53;;;;;;;;;;2062118;28;20038;-79
2022/07/26 02:18:17;;;;;;;6.78;6.05;;;;;;;;;;2063545;28;20054;-79
2022/07/26 02:19:36;;;;;;;6.00;5.50;;;;;;;;;;2062238;28;20026;-79
2022/07/26 02:20:56;;;;;;;7.18;6.57;;;;;;;;;;2066664;28;20030;-79
2022/07/26 02:22:15;;;;;;;8.60;6.47;;;;;;;;;;2062892;28;20113;-79
2022/07/26 02:23:34;;;;;;;6.30;5.72;;;;;;;;;;2067586;28;20034;-79
2022/07/26 02:24:53;;;;;;;6.95;5.93;;;;;;;;;;2070711;28;20073;-79
2022/07/26 02:26:12;;;;;;;6.43;5.88;;;;;;;;;;2062654;28;20034;-79
2022/07/26 02:27:30;;;;;;;8.88;6.85;;;;;;;;;;2067553;28;20085;-79
2022/07/26 02:28:49;;;;;;;7.20;6.50;;;;;;;;;;2063486;28;20034;-79
2022/07/26 02:30:08;;;;;;;6.57;6.07;;;;;;;;;;2058139;28;20101;-78
2022/07/26 02:31:27;;;;;;;7.20;6.22;;;;;;;;;;2067142;28;20034;-78
2022/07/26 02:32:46;;;;;;;8.40;5.80;;;;;;;;;;2067940;28;20026;-79
2022/07/26 02:34:05;;;;;;;6.95;6.25;;;;;;;;;;2061772;28;20027;-78
2022/07/26 02:35:24;;;;;;;6.72;6.13;;;;;;;;;;2060440;28;20035;-79
2022/07/26 02:36:43;;;;;;;6.40;5.80;;;;;;;;;;2068608;28;20052;-79
2022/07/26 02:38:10;;;;;;;7.28;6.65;;;;;;;;;;2078931;28;20049;-78
2022/07/26 02:39:29;;;;;;;7.13;6.55;;;;;;;;;;2071172;28;20026;-79
2022/07/26 02:40:49;;;;;;;6.72;6.00;;;;;;;;;;2076797;28;20073;-79
2022/07/26 02:42:08;;;;;;;6.32;5.82;;;;;;;;;;2070331;28;20114;-79
2022/07/26 02:43:29;;;;;;;6.95;6.32;;;;;;;;;;2074370;28;20503;-79
2022/07/26 02:44:48;;;;;;;6.68;6.10;;;;;;;;;;2078535;28;20117;-79
2022/07/26 02:46:07;;;;;;;6.68;6.18;;;;;;;;;;2080282;28;20112;-79
2022/07/26 02:47:26;;;;;;;7.60;6.38;;;;;;;;;;2079797;28;20455;-79
2022/07/26 02:48:45;;;;;;;6.80;6.18;;;;;;;;;;2079490;28;20034;-80
2022/07/26 02:50:04;;;;;;;7.68;6.85;;;;;;;;;;2071533;28;20503;-80
2022/07/26 02:51:22;;;;;;;8.38;6.38;;;;;;;;;;2074457;28;20026;-79
2022/07/26 02:52:41;;;;;;;6.70;6.07;;;;;;;;;;2075993;28;20034;-79
2022/07/26 02:54:00;;;;;;;7.28;6.68;;;;;;;;;;2071228;28;20038;-79
2022/07/26 02:55:20;;;;;;;6.78;6.13;;;;;;;;;;2068716;28;20038;-79
2022/07/26 02:56:39;;;;;;;6.47;5.95;;;;;;;;;;2068394;28;20061;-79
2022/07/26 02:57:58;;;;;;;8.38;6.10;;;;;;;;;;2075882;28;20045;-81
2022/07/26 02:59:17;;;;;;;10.00;6.40;;;;;;;;;;2079040;28;20113;-79
2022/07/26 03:00:36;;;;;;;7.35;6.60;;;;;;;;;;2071044;28;20097;-79
2022/07/26 03:01:55;;;;;;;7.50;6.93;;;;;;;;;;2064897;28;20026;-79
2022/07/26 03:03:14;;;;;;;6.50;5.80;;;;;;;;;;2068486;28;20124;-79
2022/07/26 03:04:33;;;;;;;7.30;6.30;;;;;;;;;;2062234;28;20061;-79
2022/07/26 03:05:52;;;;;;;8.00;6.32;;;;;;;;;;2070621;28;20065;-79
2022/07/26 03:07:11;;;;;;;7.43;6.70;;;;;;;;;;2076833;28;20029;-79
2022/07/26 03:08:30;;;;;;;6.50;6.00;;;;;;;;;;2080478;28;20025;-79
2022/07/26 03:09:49;;;;;;;6.95;6.22;;;;;;;;;;2081457;28;20574;-79
2022/07/26 03:11:08;;;;;;;7.35;6.65;;;;;;;;;;2073082;28;20026;-79
2022/07/26 03:12:27;;;;;;;7.45;6.40;;;;;;;;;;2066654;28;20026;-80
2022/07/26 03:13:46;;;;;;;10.10;6.80;;;;;;;;;;2075903;28;20109;-79
2022/07/26 03:15:05;;;;;;;6.93;6.10;;;;;;;;;;2081948;28;20402;-79
2022/07/26 03:16:25;;;;;;;8.10;7.53;;;;;;;;;;2064988;28;20109;-79
2022/07/26 03:17:44;;;;;;;6.95;6.40;;;;;;;;;;2069031;28;20033;-79
2022/07/26 03:19:02;;;;;;;7.25;6.50;;;;;;;;;;2077980;28;20037;-78
2022/07/26 03:20:22;;;;;;;7.20;6.50;;;;;;;;;;2081567;28;20033;-79
2022/07/26 03:21:41;;;;;;;6.72;6.15;;;;;;;;;;2073802;28;20038;-79
2022/07/26 03:23:00;;;;;;;7.65;6.95;;;;;;;;;;2068420;28;20037;-79
2022/07/26 03:24:19;;;;;;;6.75;6.15;;;;;;;;;;2077882;28;20041;-79
2022/07/26 03:25:38;;;;;;;6.72;6.10;;;;;;;;;;2082372;28;20041;-79
2022/07/26 03:26:57;;;;;;;8.05;7.28;;;;;;;;;;2073331;28;20041;-78
2022/07/26 03:28:16;;;;;;;7.55;6.80;;;;;;;;;;2072959;28;20034;-79
2022/07/26 03:29:35;;;;;;;7.90;6.80;;;;;;;;;;2061951;28;20069;-78
2022/07/26 03:30:54;;;;;;;7.10;6.40;;;;;;;;;;2059944;28;20027;-78
2022/07/26 03:32:13;;;;;;;8.52;7.00;;;;;;;;;;2072108;28;20026;-79
2022/07/26 03:33:32;;;;;;;7.07;6.47;;;;;;;;;;2077430;28;20025;-79
2022/07/26 03:34:51;;;;;;;7.43;6.60;;;;;;;;;;2082106;28;20057;-79
2022/07/26 03:36:10;;;;;;;8.30;6.63;;;;;;;;;;2081199;28;20514;-79
2022/07/26 03:37:29;;;;;;;7.40;6.90;;;;;;;;;;2081337;28;20507;-78
2022/07/26 03:38:48;;;;;;;6.93;6.22;;;;;;;;;;2080391;28;20399;-78
2022/07/26 03:40:07;;;;;;;7.05;6.55;;;;;;;;;;2077099;28;20457;-78
2022/07/26 03:41:26;;;;;;;7.07;6.57;;;;;;;;;;2079165;28;20029;-79
2022/07/26 03:42:46;;;;;;;7.10;6.53;;;;;;;;;;2080864;28;20454;-78
2022/07/26 03:44:05;;;;;;;8.20;7.10;;;;;;;;;;2080679;28;20065;-79
2022/07/26 03:45:24;;;;;;;10.38;7.85;;;;;;;;;;2073020;28;20558;-79
2022/07/26 03:46:43;;;;;;;7.25;6.75;;;;;;;;;;2077915;28;20542;-79
2022/07/26 03:48:02;;;;;;;8.13;6.97;;;;;;;;;;2080633;28;20025;-79
2022/07/26 03:49:21;;;;;;;10.73;7.50;;;;;;;;;;2072355;28;20479;-79
2022/07/26 03:50:40;;;;;;;7.47;6.35;;;;;;;;;;2077360;28;20069;-79
2022/07/26 03:51:58;;;;;;;7.55;6.97;;;;;;;;;;2080753;28;20596;-79
2022/07/26 03:53:17;;;;;;;6.95;6.38;;;;;;;;;;2071713;28;20025;-79
2022/07/26 03:54:36;;;;;;;7.85;6.20;;;;;;;;;;2078320;28;20026;-79
2022/07/26 03:57:33;;;;;;;8.55;7.18;;;;;;;;;;2080639;28;20026;-79
2022/07/26 03:58:52;;;;;;;6.85;6.30;;;;;;;;;;2080288;28;20443;-79
2022/07/26 04:00:11;;;;;;;6.75;6.18;;;;;;;;;;2081649;28;20501;-79
2022/07/26 04:01:30;;;;;;;7.07;6.38;;;;;;;;;;2070587;28;20025;-78
2022/07/26 04:02:49;;;;;;;7.75;7.05;;;;;;;;;;2070109;28;20387;-79
2022/07/26 04:04:09;;;;;;;8.40;7.10;;;;;;;;;;2078061;28;20033;-79
2022/07/26 04:05:28;;;;;;;7.25;5.85;;;;;;;;;;2080537;28;20026;-79
2022/07/26 04:06:47;;;;;;;6.88;6.38;;;;;;;;;;2080061;28;20030;-79
2022/07/26 04:08:05;;;;;;;8.45;7.18;;;;;;;;;;2074077;28;20021;-79
2022/07/26 04:09:24;;;;;;;7.43;6.70;;;;;;;;;;2068370;28;20034;-79
2022/07/26 04:10:44;;;;;;;8.30;7.55;;;;;;;;;;2077944;28;20033;-81
2022/07/26 04:12:03;;;;;;;6.80;6.20;;;;;;;;;;2071849;28;20108;-80
2022/07/26 04:13:22;;;;;;;7.53;6.72;;;;;;;;;;2076977;28;20036;-79
2022/07/26 04:14:41;;;;;;;7.32;6.65;;;;;;;;;;2076531;28;20065;-83
2022/07/26 04:16:01;;;;;;;8.13;7.00;;;;;;;;;;2071050;28;20033;-80
2022/07/26 04:17:20;;;;;;;6.88;6.28;;;;;;;;;;2077464;28;20025;-80
2022/07/26 04:18:39;;;;;;;7.95;6.50;;;;;;;;;;2068047;28;20018;-79
2022/07/26 04:19:57;;;;;;;7.68;6.95;;;;;;;;;;2076479;28;20120;-80
2022/07/26 04:21:16;;;;;;;6.85;6.35;;;;;;;;;;2081618;28;20030;-80
2022/07/26 04:22:36;;;;;;;7.18;6.50;;;;;;;;;;2071457;28;20026;-80
2022/07/26 04:23:54;;;;;;;7.43;6.72;;;;;;;;;;2071825;28;20110;-80
2022/07/26 04:25:13;;;;;;;7.57;6.80;;;;;;;;;;2068917;28;20038;-80
2022/07/26 04:26:33;;;;;;;7.25;6.13;;;;;;;;;;2077292;28;20109;-80
2022/07/26 04:27:52;;;;;;;7.03;6.40;;;;;;;;;;2080117;28;20026;-80
2022/07/26 04:29:11;;;;;;;7.47;6.88;;;;;;;;;;2080758;28;20025;-80
2022/07/26 04:30:30;;;;;;;8.18;6.72;;;;;;;;;;2080024;28;20033;-80
2022/07/26 04:31:49;;;;;;;7.03;6.53;;;;;;;;;;2073035;28;20657;-80
2022/07/26 04:33:08;;;;;;;8.93;6.93;;;;;;;;;;2069080;28;20415;-80
2022/07/26 04:34:27;;;;;;;7.40;6.80;;;;;;;;;;2076629;28;20054;-80
2022/07/26 04:35:46;;;;;;;7.80;6.38;;;;;;;;;;2080581;28;20037;-80
2022/07/26 04:37:05;;;;;;;7.80;6.88;;;;;;;;;;2072367;28;20038;-80
2022/07/26 04:38:24;;;;;;;6.80;6.20;;;;;;;;;;2074133;28;20462;-80
2022/07/26 04:39:43;;;;;;;7.55;6.78;;;;;;;;;;2070629;28;20037;-80
2022/07/26 04:41:02;;;;;;;7.80;6.60;;;;;;;;;;2065536;28;20031;-80
2022/07/26 04:42:21;;;;;;;7.18;6.60;;;;;;;;;;2076564;28;20037;-80
2022/07/26 04:43:40;;;;;;;6.75;6.00;;;;;;;;;;2081751;28;20025;-80
2022/07/26 04:44:59;;;;;;;6.88;6.07;;;;;;;;;;2080568;28;20037;-80
2022/07/26 04:46:18;;;;;;;8.18;6.00;;;;;;;;;;2072445;28;20034;-80
2022/07/26 04:47:39;;;;;;;9.90;6.60;;;;;;;;;;2069269;28;20014;-80
2022/07/26 04:48:58;;;;;;;6.32;5.82;;;;;;;;;;2077674;28;20029;-80
2022/07/26 04:50:21;;;;;;;6.68;6.03;;;;;;;;;;2071629;28;20030;-80
2022/07/26 04:51:40;;;;;;;6.97;6.35;;;;;;;;;;2069653;28;20022;-80
2022/07/26 04:52:58;;;;;;;7.25;6.38;;;;;;;;;;2077773;28;20497;-80
2022/07/26 04:54:22;;;;;;;7.43;6.43;;;;;;;;;;2072536;28;20041;-80
2022/07/26 04:55:40;;;;;;;7.55;6.35;;;;;;;;;;2078426;28;20383;-80
2022/07/26 04:56:59;;;;;;;8.48;7.05;;;;;;;;;;2081235;28;20049;-80
2022/07/26 04:58:18;;;;;;;7.22;6.25;;;;;;;;;;2081433;28;20029;-82
2022/07/26 04:59:37;;;;;;;7.80;6.32;;;;;;;;;;2070439;28;20033;-80
2022/07/26 05:00:56;;;;;;;6.75;6.15;;;;;;;;;;2069139;28;20514;-80
2022/07/26 05:02:14;;;;;;;7.43;6.35;;;;;;;;;;2077771;28;20069;-80
2022/07/26 05:03:33;;;;;;;6.97;6.20;;;;;;;;;;2071697;28;20034;-80
2022/07/26 05:04:52;;;;;;;7.88;5.93;;;;;;;;;;2076243;28;20033;-80
2022/07/26 05:06:11;;;;;;;6.70;5.63;;;;;;;;;;2081594;28;20038;-80
2022/07/26 05:07:40;;;;;;;6.32;5.82;;;;;;;;;;2081398;28;20017;-80
2022/07/26 05:08:59;;;;;;;6.57;5.97;;;;;;;;;;2081089;28;20029;-80
2022/07/26 05:10:18;;;;;;;6.50;6.00;;;;;;;;;;2080503;28;20034;-80
2022/07/26 05:11:37;;;;;;;6.93;6.32;;;;;;;;;;2080242;28;20025;-80
2022/07/26 05:12:56;;;;;;;6.38;5.78;;;;;;;;;;2072638;28;20058;-80
2022/07/26 05:14:15;;;;;;;6.97;5.82;;;;;;;;;;2076752;28;20025;-80
2022/07/26 05:15:37;;;;;;;6.28;5.78;;;;;;;;;;2072532;28;20022;-80
2022/07/26 05:16:56;;;;;;;7.03;5.97;;;;;;;;;;2077419;28;20026;-80
2022/07/26 05:18:16;;;;;;;5.93;5.43;;;;;;;;;;2081249;28;20160;-80
2022/07/26 05:19:35;;;;;;;5.60;5.20;;;;;;;;;;2077025;28;20037;-80
2022/07/26 05:20:53;;;;;;;6.30;5.43;;;;;;;;;;2069044;28;20463;-80
2022/07/26 05:22:12;;;;;;;6.22;5.50;;;;;;;;;;2076694;28;20033;-80
2022/07/26 05:23:31;;;;;;;7.43;5.78;;;;;;;;;;2080099;28;20026;-80
2022/07/26 05:24:50;;;;;;;8.23;5.60;;;;;;;;;;2071993;28;20480;-80
2022/07/26 05:26:10;;;;;;;6.93;5.68;;;;;;;;;;2065052;28;20488;-80
2022/07/26 05:27:28;;;;;;;8.68;5.93;;;;;;;;;;2074442;28;20443;-80
2022/07/26 05:28:47;;;;;;;6.28;5.68;;;;;;;;;;2081495;28;20030;-80
2022/07/26 05:30:07;;;;;;;6.90;6.20;;;;;;;;;;2080857;28;20034;-80
2022/07/26 05:31:25;;;;;;;7.90;5.75;;;;;;;;;;2078758;28;20021;-80
2022/07/26 05:32:44;;;;;;;5.97;5.38;;;;;;;;;;2071295;28;20097;-80
2022/07/26 05:34:03;;;;;;;6.95;5.40;;;;;;;;;;2077506;28;20037;-80
2022/07/26 05:35:22;;;;;;;5.43;4.90;;;;;;;;;;2072052;28;20042;-80
2022/07/26 05:36:41;;;;;;;8.05;5.28;;;;;;;;;;2076939;28;20026;-80
2022/07/26 05:38:00;;;;;;;8.65;5.85;;;;;;;;;;2071773;28;20045;-80
2022/07/26 05:39:19;;;;;;;6.35;5.35;;;;;;;;;;2077501;28;20033;-80
2022/07/26 05:40:38;;;;;;;7.47;5.85;;;;;;;;;;2071618;28;20030;-80
2022/07/26 05:41:56;;;;;;;6.75;5.90;;;;;;;;;;2068592;28;20037;-80
2022/07/26 05:43:15;;;;;;;7.47;6.75;;;;;;;;;;2066971;28;20033;-80
2022/07/26 05:44:34;;;;;;;6.50;5.90;;;;;;;;;;2077462;28;20117;-80
2022/07/26 05:45:55;;;;;;;7.10;5.97;;;;;;;;;;2080378;28;20084;-81
2022/07/26 05:47:13;;;;;;;6.22;5.60;;;;;;;;;;2081086;28;20038;-80
2022/07/26 05:48:33;;;;;;;7.63;5.80;;;;;;;;;;2079437;28;20025;-80
2022/07/26 05:49:52;;;;;;;6.90;6.15;;;;;;;;;;2080336;28;20025;-80
2022/07/26 05:51:11;;;;;;;6.53;5.57;;;;;;;;;;2071590;28;20038;-80
2022/07/26 05:52:29;;;;;;;7.30;6.22;;;;;;;;;;2064255;28;20038;-80
2022/07/26 05:53:48;;;;;;;6.03;5.43;;;;;;;;;;2071846;28;20034;-80
2022/07/26 05:55:07;;;;;;;9.73;5.63;;;;;;;;;;2076084;28;20022;-80
2022/07/26 05:56:26;;;;;;;6.53;5.68;;;;;;;;;;2080251;28;20033;-80
2022/07/26 05:57:46;;;;;;;6.45;5.85;;;;;;;;;;2081292;28;20025;-80
2022/07/26 05:59:05;;;;;;;5.80;5.20;;;;;;;;;;2071913;28;20479;-80
2022/07/26 06:00:24;;;;;;;6.45;5.30;;;;;;;;;;2068123;28;20034;-80
2022/07/26 06:01:43;;;;;;;6.68;5.47;;;;;;;;;;2071880;28;20120;-80
2022/07/26 06:03:21;;;;;;;5.47;5.07;;;;;;;;;;2077462;28;20033;-80
2022/07/26 06:04:39;;;;;;;6.30;5.53;;;;;;;;;;2065667;28;20488;-80
2022/07/26 06:05:58;;;;;;;5.68;5.18;;;;;;;;;;2067086;28;20058;-80
2022/07/26 06:07:18;;;;;;;5.90;4.65;;;;;;;;;;2076175;28;20454;-80
2022/07/26 06:08:36;;;;;;;4.95;4.65;;;;;;;;;;2080494;28;20065;-80
2022/07/26 06:09:55;;;;;;;5.22;4.80;;;;;;;;;;2071401;28;20475;-79
2022/07/26 06:11:14;;;;;;;4.75;4.28;;;;;;;;;;2076645;28;20065;-79
2022/07/26 06:12:33;;;;;;;4.10;3.80;;;;;;;;;;2081208;28;20482;-79
2022/07/26 06:13:52;;;;;;;4.75;4.15;;;;;;;;;;2071652;28;20045;-80
2022/07/26 06:15:10;;;;;;;3.80;3.60;;;;;;;;;;2068386;28;20522;-79
2022/07/26 06:16:29;;;;;;;3.90;3.60;;;;;;;;;;2072801;28;20037;-80
2022/07/26 06:17:48;;;;;;;3.03;2.83;;;;;;;;;;2070064;28;20495;-80
2022/07/26 06:19:07;;;;;;;3.80;3.50;;;;;;;;;;2073159;28;20490;-80
2022/07/26 06:20:25;;;;;;;3.40;3.10;;;;;;;;;;2079465;28;20029;-79
2022/07/26 06:21:45;;;;;;;3.00;2.80;;;;;;;;;;2072861;28;20106;-79
2022/07/26 06:23:03;;;;;;;2.90;2.70;;;;;;;;;;2076175;28;20155;-79
2022/07/26 06:24:23;;;;;;;3.50;2.70;;;;;;;;;;2081324;28;20483;-79
2022/07/26 06:25:42;;;;;;;2.58;2.40;;;;;;;;;;2072355;28;20030;-79
2022/07/26 06:27:01;;;;;;;2.85;2.65;;;;;;;;;;2078040;28;20037;-79
2022/07/26 06:28:20;;;;;;;2.95;2.30;;;;;;;;;;2081160;28;20486;-79
2022/07/26 06:29:39;;;;;;;2.90;2.70;;;;;;;;;;2080029;28;20033;-80
2022/07/26 06:30:58;;;;;;;2.25;2.15;;;;;;;;;;2071743;28;20034;-80
2022/07/26 06:32:17;;;;;;;2.88;2.67;;;;;;;;;;2067029;28;20632;-81
2022/07/26 06:33:36;;;;;;;2.17;2.08;;;;;;;;;;2073737;28;20109;-79
2022/07/26 06:34:55;;;;;;;2.88;2.67;;;;;;;;;;2079281;28;20113;-80
2022/07/26 06:36:14;;;;;;;2.50;2.35;;;;;;;;;;2069899;28;20479;-80
2022/07/26 06:37:34;;;;;;;2.35;2.25;;;;;;;;;;2068961;28;20560;-80
2022/07/26 06:38:53;;;;;;;2.55;2.20;;;;;;;;;;2077245;28;20116;-80
2022/07/26 06:40:12;;;;;;;4.97;2.30;;;;;;;;;;2072010;28;20033;-80
2022/07/26 06:41:31;;;;;;;3.30;2.35;;;;;;;;;;2077133;28;20025;-80
2022/07/26 06:42:50;;;;;;;2.80;2.60;;;;;;;;;;2072920;28;20030;-81
2022/07/26 06:44:10;;;;;;;2.47;2.28;;;;;;;;;;2079145;28;20025;-81
2022/07/26 06:45:29;;;;;;;2.45;2.17;;;;;;;;;;2079471;28;20029;-81
2022/07/26 06:46:48;;;;;;;2.50;2.40;;;;;;;;;;2070159;28;20042;-80
2022/07/26 06:48:07;;;;;;;2.78;2.58;;;;;;;;;;2079277;28;20025;-81
2022/07/26 06:49:26;;;;;;;2.53;2.42;;;;;;;;;;2082029;28;20026;-80
2022/07/26 06:50:45;;;;;;;2.47;2.28;;;;;;;;;;2072506;28;20030;-79
2022/07/26 06:52:04;;;;;;;3.75;2.95;;;;;;;;;;2077398;28;20029;-81
2022/07/26 06:53:23;;;;;;;2.97;2.78;;;;;;;;;;2081714;28;20022;-81
2022/07/26 06:54:42;;;;;;;2.83;2.63;;;;;;;;;;2081259;28;20022;-85
2022/07/26 06:56:00;;;;;;;3.05;2.80;;;;;;;;;;2081631;28;20478;-85
2022/07/26 06:57:20;;;;;;;2.88;2.67;;;;;;;;;;2080676;28;20037;-85
2022/07/26 06:58:40;;;;;;;2.80;2.70;;;;;;;;;;2081689;28;20018;-81
2022/07/26 06:59:59;;;;;;;3.00;2.80;;;;;;;;;;2072539;28;20665;-81
2022/07/26 07:01:18;;;;;;;2.92;2.80;;;;;;;;;;2077766;28;20167;-79
2022/07/26 07:02:37;;;;;;;2.85;2.65;;;;;;;;;;2082223;28;20033;-83
2022/07/26 07:03:56;;;;;;;3.33;3.10;;;;;;;;;;2081866;28;20104;-84
2022/07/26 07:05:15;;;;;;;3.10;2.90;;;;;;;;;;2073541;28;20018;-86
2022/07/26 07:06:34;;;;;;;2.80;2.58;;;;;;;;;;2077620;28;20029;-81
2022/07/26 07:07:53;;;;;;;3.38;3.17;;;;;;;;;;2072382;28;20116;-81
2022/07/26 07:09:11;;;;;;;2.97;2.85;;;;;;;;;;2078497;28;20021;-86
2022/07/26 07:10:30;;;;;;;3.63;2.88;;;;;;;;;;2065969;28;20097;-84
2022/07/26 07:11:49;;;;;;;3.42;3.22;;;;;;;;;;2078297;28;20037;-87
2022/07/26 07:13:08;;;;;;;3.35;3.15;;;;;;;;;;2072626;28;20034;-82
2022/07/26 07:14:27;;;;;;;3.63;3.42;;;;;;;;;;2078537;28;20025;-83
2022/07/26 07:15:46;;;;;;;3.90;3.53;;;;;;;;;;2080415;28;20495;-83
2022/07/26 07:17:05;;;;;;;3.55;3.35;;;;;;;;;;2080932;28;20491;-84
2022/07/26 07:18:24;;;;;;;3.63;3.33;;;;;;;;;;2072959;28;20427;-84
2022/07/26 07:19:43;;;;;;;4.13;3.75;;;;;;;;;;2077747;28;20030;-81
2022/07/26 07:21:02;;;;;;;3.70;3.40;;;;;;;;;;2072320;28;20041;-85
2022/07/26 07:22:20;;;;;;;3.53;3.33;;;;;;;;;;2066174;28;20117;-83
2022/07/26 07:23:39;;;;;;;3.78;3.50;;;;;;;;;;2075833;28;20022;-82
2022/07/26 07:24:59;;;;;;;3.53;3.30;;;;;;;;;;2081878;28;20037;-84
2022/07/26 07:26:19;;;;;;;4.57;4.15;;;;;;;;;;2072909;28;20030;-85
2022/07/26 07:27:38;;;;;;;3.30;3.10;;;;;;;;;;2072502;28;20117;-85
2022/07/26 07:28:56;;;;;;;3.55;3.33;;;;;;;;;;2071515;28;20026;-84
2022/07/26 07:30:15;;;;;;;3.45;3.25;;;;;;;;;;2076876;28;20057;-83
2022/07/26 07:31:35;;;;;;;3.42;3.20;;;;;;;;;;2072643;28;20411;-84
2022/07/26 07:32:54;;;;;;;2.28;2.17;;;;;;;;;;2078476;28;20394;-81
2022/07/26 07:34:13;;;;;;;2.88;2.67;;;;;;;;;;2072389;28;20030;-86
2022/07/26 07:35:32;;;;;;;2.88;2.67;;;;;;;;;;2072496;28;20030;-81
2022/07/26 07:36:51;;;;;;;2.58;2.00;;;;;;;;;;2075531;28;20033;-83
2022/07/26 07:38:10;;;;;;;2.50;2.30;;;;;;;;;;2081533;28;20057;-79
2022/07/26 07:39:29;;;;;;;2.28;2.17;;;;;;;;;;2081196;28;20499;-85
2022/07/26 07:40:49;;;;;;;2.25;2.13;;;;;;;;;;2081065;28;20041;-86
2022/07/26 07:42:08;;;;;;;2.70;2.20;;;;;;;;;;2080599;28;20148;-83
2022/07/26 07:43:26;;;;;;;2.53;2.40;;;;;;;;;;2072724;28;20034;-82
2022/07/26 07:44:46;;;;;;;3.38;2.63;;;;;;;;;;2068458;28;20061;-81
2022/07/26 07:46:05;;;;;;;2.67;2.50;;;;;;;;;;2077690;28;20479;-83
2022/07/26 07:47:24;;;;;;;2.17;2.00;;;;;;;;;;2081288;28;20032;-83
2022/07/26 07:48:43;;;;;;;3.25;2.28;;;;;;;;;;2072748;28;20025;-84
2022/07/26 07:50:02;;;;;;;2.85;2.30;;;;;;;;;;2068259;28;20410;-78
2022/07/26 07:51:21;;;;;;;2.42;2.22;;;;;;;;;;2068302;28;20030;-79
2022/07/26 07:52:40;;;;;;;3.25;2.95;;;;;;;;;;2077656;28;20026;-79
2022/07/26 07:53:59;;;;;;;2.42;2.30;;;;;;;;;;2081500;28;20021;-79
2022/07/26 07:55:18;;;;;;;3.03;2.72;;;;;;;;;;2072593;28;20415;-79
2022/07/26 07:56:37;;;;;;;2.63;2.42;;;;;;;;;;2077124;28;20021;-80